sensor_id;sensor_type;location;lat;lon;timestamp;P1;durP1;ratioP1;P2;durP2;ratioP2
52438;SDS011;38359;53.150;6.504;2023-02-23T00:02:03;119.72;;;49.40;;
52438;SDS011;38359;53.150;6.504;2023-02-23T00:12:30;118.15;;;49.40;;
52438;SDS011;38359;53.150;6.504;2023-02-23T00:22:55;128.52;;;52.88;;
52438;SDS011;38359;53.150;6.504;2023-02-23T00:33:22;135.32;;;56.50;;
52438;SDS011;38359;53.150;6.504;2023-02-23T00:43:47;142.55;;;57.22;;
52438;SDS011;38359;53.150;6.504;2023-02-23T00:54:14;149.10;;;58.05;;
52438;SDS011;38359;53.150;6.504;2023-02-23T01:04:41;167.88;;;64.78;;
52438;SDS011;38359;53.150;6.504;2023-02-23T01:15:07;164.07;;;63.20;;
52438;SDS011;38359;53.150;6.504;2023-02-23T01:25:36;167.27;;;61.08;;
52438;SDS011;38359;53.150;6.504;2023-02-23T01:36:02;184.48;;;67.10;;
52438;SDS011;38359;53.150;6.504;2023-02-23T01:46:32;171.88;;;64.63;;
52438;SDS011;38359;53.150;6.504;2023-02-23T01:57:10;188.48;;;66.78;;
52438;SDS011;38359;53.150;6.504;2023-02-23T02:07:38;170.88;;;65.20;;
52438;SDS011;38359;53.150;6.504;2023-02-23T02:18:17;179.53;;;65.60;;
52438;SDS011;38359;53.150;6.504;2023-02-23T03:02:16;202.18;;;68.07;;
52438;SDS011;38359;53.150;6.504;2023-02-23T03:13:07;186.57;;;66.72;;
52438;SDS011;38359;53.150;6.504;2023-02-23T03:24:48;204.35;;;68.50;;
52438;SDS011;38359;53.150;6.504;2023-02-23T03:46:34;211.60;;;68.20;;
52438;SDS011;38359;53.150;6.504;2023-02-23T03:57:21;214.05;;;71.78;;
52438;SDS011;38359;53.150;6.504;2023-02-23T04:08:08;222.95;;;68.72;;
52438;SDS011;38359;53.150;6.504;2023-02-23T04:18:57;208.90;;;66.57;;
52438;SDS011;38359;53.150;6.504;2023-02-23T04:29:22;192.45;;;66.20;;
52438;SDS011;38359;53.150;6.504;2023-02-23T04:39:48;203.25;;;63.60;;
52438;SDS011;38359;53.150;6.504;2023-02-23T04:50:14;186.98;;;59.60;;
52438;SDS011;38359;53.150;6.504;2023-02-23T05:00:41;187.32;;;63.85;;
52438;SDS011;38359;53.150;6.504;2023-02-23T05:11:07;174.18;;;57.05;;
52438;SDS011;38359;53.150;6.504;2023-02-23T05:21:33;144.85;;;49.13;;
52438;SDS011;38359;53.150;6.504;2023-02-23T05:31:59;124.47;;;44.90;;
52438;SDS011;38359;53.150;6.504;2023-02-23T05:42:25;100.38;;;38.05;;
52438;SDS011;38359;53.150;6.504;2023-02-23T05:52:50;97.28;;;38.53;;
52438;SDS011;38359;53.150;6.504;2023-02-23T06:03:16;99.68;;;37.85;;
52438;SDS011;38359;53.150;6.504;2023-02-23T06:13:42;71.22;;;32.42;;
52438;SDS011;38359;53.150;6.504;2023-02-23T06:24:08;86.22;;;37.90;;
52438;SDS011;38359;53.150;6.504;2023-02-23T06:34:34;86.68;;;35.67;;
52438;SDS011;38359;53.150;6.504;2023-02-23T06:45:01;74.85;;;33.05;;
52438;SDS011;38359;53.150;6.504;2023-02-23T06:55:28;70.97;;;33.65;;
52438;SDS011;38359;53.150;6.504;2023-02-23T07:05:54;67.57;;;31.25;;
52438;SDS011;38359;53.150;6.504;2023-02-23T07:16:20;64.82;;;31.08;;
52438;SDS011;38359;53.150;6.504;2023-02-23T07:26:47;72.47;;;32.22;;
52438;SDS011;38359;53.150;6.504;2023-02-23T07:37:13;71.72;;;34.28;;
52438;SDS011;38359;53.150;6.504;2023-02-23T07:47:41;71.43;;;32.95;;
52438;SDS011;38359;53.150;6.504;2023-02-23T07:58:07;65.80;;;32.17;;
52438;SDS011;38359;53.150;6.504;2023-02-23T08:08:33;60.80;;;28.80;;
52438;SDS011;38359;53.150;6.504;2023-02-23T08:18:59;63.72;;;29.45;;
52438;SDS011;38359;53.150;6.504;2023-02-23T08:29:25;75.07;;;30.15;;
52438;SDS011;38359;53.150;6.504;2023-02-23T08:39:51;62.47;;;29.05;;
52438;SDS011;38359;53.150;6.504;2023-02-23T08:50:17;65.53;;;30.77;;
52438;SDS011;38359;53.150;6.504;2023-02-23T09:00:43;75.43;;;31.83;;
52438;SDS011;38359;53.150;6.504;2023-02-23T09:11:09;71.93;;;31.17;;
52438;SDS011;38359;53.150;6.504;2023-02-23T09:21:35;76.95;;;31.58;;
52438;SDS011;38359;53.150;6.504;2023-02-23T09:32:01;77.40;;;32.78;;
52438;SDS011;38359;53.150;6.504;2023-02-23T09:42:34;85.95;;;31.58;;
52438;SDS011;38359;53.150;6.504;2023-02-23T10:25:30;97.35;;;37.78;;
52438;SDS011;38359;53.150;6.504;2023-02-23T10:36:09;106.95;;;37.17;;
52438;SDS011;38359;53.150;6.504;2023-02-23T10:46:43;126.65;;;41.70;;
52438;SDS011;38359;53.150;6.504;2023-02-23T10:57:33;137.90;;;39.88;;
52438;SDS011;38359;53.150;6.504;2023-02-23T11:08:18;136.40;;;36.33;;
52438;SDS011;38359;53.150;6.504;2023-02-23T11:18:56;104.53;;;29.75;;
52438;SDS011;38359;53.150;6.504;2023-02-23T11:29:31;93.03;;;26.23;;
52438;SDS011;38359;53.150;6.504;2023-02-23T11:40:02;113.28;;;31.35;;
52438;SDS011;38359;53.150;6.504;2023-02-23T11:50:51;112.47;;;32.67;;
52438;SDS011;38359;53.150;6.504;2023-02-23T12:12:10;168.13;;;41.53;;
52438;SDS011;38359;53.150;6.504;2023-02-23T12:22:43;190.50;;;46.03;;
52438;SDS011;38359;53.150;6.504;2023-02-23T12:44:09;164.85;;;40.53;;
52438;SDS011;38359;53.150;6.504;2023-02-23T12:54:58;183.93;;;45.28;;
52438;SDS011;38359;53.150;6.504;2023-02-23T13:05:28;182.00;;;43.47;;
52438;SDS011;38359;53.150;6.504;2023-02-23T13:26:41;46.53;;;6.50;;
52438;SDS011;38359;53.150;6.504;2023-02-23T13:37:13;75.28;;;8.50;;
52438;SDS011;38359;53.150;6.504;2023-02-23T13:48:00;87.63;;;8.60;;
52438;SDS011;38359;53.150;6.504;2023-02-23T14:09:52;60.28;;;9.00;;
52438;SDS011;38359;53.150;6.504;2023-02-23T14:20:38;68.50;;;8.05;;
52438;SDS011;38359;53.150;6.504;2023-02-23T14:31:52;68.30;;;8.40;;
52438;SDS011;38359;53.150;6.504;2023-02-23T14:42:23;70.18;;;8.70;;
52438;SDS011;38359;53.150;6.504;2023-02-23T14:52:52;71.30;;;7.93;;
52438;SDS011;38359;53.150;6.504;2023-02-23T15:03:23;71.53;;;7.40;;
52438;SDS011;38359;53.150;6.504;2023-02-23T15:13:49;64.30;;;8.05;;
52438;SDS011;38359;53.150;6.504;2023-02-23T15:24:19;61.22;;;6.60;;
52438;SDS011;38359;53.150;6.504;2023-02-23T15:34:52;53.42;;;6.28;;
52438;SDS011;38359;53.150;6.504;2023-02-23T15:45:27;45.67;;;6.38;;
52438;SDS011;38359;53.150;6.504;2023-02-23T15:56:12;46.58;;;4.90;;
52438;SDS011;38359;53.150;6.504;2023-02-23T16:06:53;35.92;;;3.72;;
52438;SDS011;38359;53.150;6.504;2023-02-23T16:28:08;39.58;;;5.30;;
52438;SDS011;38359;53.150;6.504;2023-02-23T16:38:59;36.58;;;3.88;;
52438;SDS011;38359;53.150;6.504;2023-02-23T16:49:28;33.08;;;4.18;;
52438;SDS011;38359;53.150;6.504;2023-02-23T16:59:54;26.63;;;3.60;;
52438;SDS011;38359;53.150;6.504;2023-02-23T17:10:23;29.73;;;3.83;;
52438;SDS011;38359;53.150;6.504;2023-02-23T17:20:58;41.15;;;4.80;;
52438;SDS011;38359;53.150;6.504;2023-02-23T17:31:28;28.10;;;3.35;;
52438;SDS011;38359;53.150;6.504;2023-02-23T17:41:55;24.58;;;3.40;;
52438;SDS011;38359;53.150;6.504;2023-02-23T17:52:21;27.92;;;4.10;;
52438;SDS011;38359;53.150;6.504;2023-02-23T18:02:47;30.90;;;5.65;;
52438;SDS011;38359;53.150;6.504;2023-02-23T18:13:13;34.67;;;6.65;;
52438;SDS011;38359;53.150;6.504;2023-02-23T18:23:40;29.67;;;6.75;;
52438;SDS011;38359;53.150;6.504;2023-02-23T18:34:06;44.15;;;9.27;;
52438;SDS011;38359;53.150;6.504;2023-02-23T18:44:32;27.08;;;6.70;;
52438;SDS011;38359;53.150;6.504;2023-02-23T18:54:58;30.90;;;6.78;;
52438;SDS011;38359;53.150;6.504;2023-02-23T19:05:24;35.55;;;6.38;;
52438;SDS011;38359;53.150;6.504;2023-02-23T19:15:50;25.40;;;4.55;;
52438;SDS011;38359;53.150;6.504;2023-02-23T19:26:17;61.90;;;18.13;;
52438;SDS011;38359;53.150;6.504;2023-02-23T19:36:44;30.60;;;6.57;;
52438;SDS011;38359;53.150;6.504;2023-02-23T19:47:11;39.05;;;8.55;;
52438;SDS011;38359;53.150;6.504;2023-02-23T19:57:36;29.55;;;4.90;;
52438;SDS011;38359;53.150;6.504;2023-02-23T20:08:02;42.25;;;13.95;;
52438;SDS011;38359;53.150;6.504;2023-02-23T20:18:28;63.72;;;16.13;;
52438;SDS011;38359;53.150;6.504;2023-02-23T20:28:57;42.95;;;11.88;;
52438;SDS011;38359;53.150;6.504;2023-02-23T20:39:23;27.05;;;6.43;;
52438;SDS011;38359;53.150;6.504;2023-02-23T20:49:50;25.00;;;5.75;;
52438;SDS011;38359;53.150;6.504;2023-02-23T21:00:16;23.08;;;5.28;;
52438;SDS011;38359;53.150;6.504;2023-02-23T21:10:55;24.42;;;3.42;;
52438;SDS011;38359;53.150;6.504;2023-02-23T21:21:21;23.92;;;4.32;;
52438;SDS011;38359;53.150;6.504;2023-02-23T21:31:47;22.33;;;2.72;;
52438;SDS011;38359;53.150;6.504;2023-02-23T21:42:13;16.58;;;4.18;;
52438;SDS011;38359;53.150;6.504;2023-02-23T21:52:42;18.02;;;2.15;;
52438;SDS011;38359;53.150;6.504;2023-02-23T22:03:10;13.30;;;1.63;;
52438;SDS011;38359;53.150;6.504;2023-02-23T22:13:36;22.08;;;2.20;;
52438;SDS011;38359;53.150;6.504;2023-02-23T22:24:02;52.05;;;10.98;;
52438;SDS011;38359;53.150;6.504;2023-02-23T22:34:30;17.58;;;4.70;;
52438;SDS011;38359;53.150;6.504;2023-02-23T22:44:55;14.75;;;2.75;;
52438;SDS011;38359;53.150;6.504;2023-02-23T22:55:21;17.55;;;2.85;;
52438;SDS011;38359;53.150;6.504;2023-02-23T23:05:47;20.90;;;3.58;;
52438;SDS011;38359;53.150;6.504;2023-02-23T23:16:20;14.40;;;2.50;;
52438;SDS011;38359;53.150;6.504;2023-02-23T23:26:52;16.40;;;2.33;;
52438;SDS011;38359;53.150;6.504;2023-02-23T23:37:19;21.13;;;2.65;;
52438;SDS011;38359;53.150;6.504;2023-02-23T23:47:45;15.68;;;2.00;;
52438;SDS011;38359;53.150;6.504;2023-02-23T23:58:11;12.63;;;1.77;;
